sensor_id;sensor_type;location;lat;lon;timestamp;P1;durP1;ratioP1;P2;durP2;ratioP2
48727;SDS011;34527;45.618;5.130;2022-09-09T00:09:46;1.95;;;1.50;;
48727;SDS011;34527;45.618;5.130;2022-09-09T00:12:32;4.88;;;1.60;;
48727;SDS011;34527;45.618;5.130;2022-09-09T00:15:05;4.43;;;1.65;;
48727;SDS011;34527;45.618;5.130;2022-09-09T00:17:38;4.35;;;1.52;;
48727;SDS011;34527;45.618;5.130;2022-09-09T00:20:19;3.38;;;1.42;;
48727;SDS011;34527;45.618;5.130;2022-09-09T00:23:38;2.08;;;1.70;;
48727;SDS011;34527;45.618;5.130;2022-09-09T00:28:56;5.18;;;1.90;;
48727;SDS011;34527;45.618;5.130;2022-09-09T00:31:35;4.53;;;1.85;;
48727;SDS011;34527;45.618;5.130;2022-09-09T00:34:12;3.65;;;1.90;;
48727;SDS011;34527;45.618;5.130;2022-09-09T00:36:42;2.38;;;1.90;;
48727;SDS011;34527;45.618;5.130;2022-09-09T00:44:40;2.60;;;1.77;;
48727;SDS011;34527;45.618;5.130;2022-09-09T00:56:14;3.22;;;1.50;;
48727;SDS011;34527;45.618;5.130;2022-09-09T01:01:35;3.17;;;1.70;;
48727;SDS011;34527;45.618;5.130;2022-09-09T01:04:05;1.80;;;1.50;;
48727;SDS011;34527;45.618;5.130;2022-09-09T01:06:41;3.25;;;1.42;;
48727;SDS011;34527;45.618;5.130;2022-09-09T01:17:31;3.15;;;1.50;;
48727;SDS011;34527;45.618;5.130;2022-09-09T01:20:12;2.60;;;1.57;;
48727;SDS011;34527;45.618;5.130;2022-09-09T01:25:56;1.52;;;1.40;;
48727;SDS011;34527;45.618;5.130;2022-09-09T01:28:30;4.63;;;1.60;;
48727;SDS011;34527;45.618;5.130;2022-09-09T01:30:57;2.63;;;1.75;;
48727;SDS011;34527;45.618;5.130;2022-09-09T01:33:25;2.92;;;1.65;;
48727;SDS011;34527;45.618;5.130;2022-09-09T01:35:59;4.65;;;1.50;;
48727;SDS011;34527;45.618;5.130;2022-09-09T01:38:34;10.95;;;1.88;;
48727;SDS011;34527;45.618;5.130;2022-09-09T01:41:01;4.20;;;1.77;;
48727;SDS011;34527;45.618;5.130;2022-09-09T01:43:27;4.57;;;1.65;;
48727;SDS011;34527;45.618;5.130;2022-09-09T01:45:55;5.40;;;1.90;;
48727;SDS011;34527;45.618;5.130;2022-09-09T01:48:24;2.47;;;1.40;;
48727;SDS011;34527;45.618;5.130;2022-09-09T01:50:51;3.50;;;1.70;;
48727;SDS011;34527;45.618;5.130;2022-09-09T01:53:17;4.85;;;1.50;;
48727;SDS011;34527;45.618;5.130;2022-09-09T01:55:52;2.80;;;1.60;;
48727;SDS011;34527;45.618;5.130;2022-09-09T02:05:02;4.45;;;1.50;;
48727;SDS011;34527;45.618;5.130;2022-09-09T02:07:13;2.05;;;1.50;;
48727;SDS011;34527;45.618;5.130;2022-09-09T02:10:02;4.63;;;1.45;;
48727;SDS011;34527;45.618;5.130;2022-09-09T02:12:48;3.03;;;1.73;;
48727;SDS011;34527;45.618;5.130;2022-09-09T02:16:01;4.63;;;1.52;;
48727;SDS011;34527;45.618;5.130;2022-09-09T02:18:48;2.90;;;1.30;;
48727;SDS011;34527;45.618;5.130;2022-09-09T02:21:42;2.05;;;1.70;;
48727;SDS011;34527;45.618;5.130;2022-09-09T02:24:11;3.40;;;1.50;;
48727;SDS011;34527;45.618;5.130;2022-09-09T02:26:41;4.22;;;1.80;;
48727;SDS011;34527;45.618;5.130;2022-09-09T02:29:20;3.95;;;1.55;;
48727;SDS011;34527;45.618;5.130;2022-09-09T02:31:49;2.80;;;1.70;;
48727;SDS011;34527;45.618;5.130;2022-09-09T02:34:16;4.07;;;1.55;;
48727;SDS011;34527;45.618;5.130;2022-09-09T02:36:45;5.93;;;1.55;;
48727;SDS011;34527;45.618;5.130;2022-09-09T02:39:13;7.70;;;1.60;;
48727;SDS011;34527;45.618;5.130;2022-09-09T02:41:40;3.30;;;1.45;;
48727;SDS011;34527;45.618;5.130;2022-09-09T02:44:17;4.47;;;1.67;;
48727;SDS011;34527;45.618;5.130;2022-09-09T02:46:47;4.78;;;1.52;;
48727;SDS011;34527;45.618;5.130;2022-09-09T02:52:17;1.73;;;1.30;;
48727;SDS011;34527;45.618;5.130;2022-09-09T02:54:47;2.60;;;1.60;;
48727;SDS011;34527;45.618;5.130;2022-09-09T02:57:25;3.92;;;1.40;;
48727;SDS011;34527;45.618;5.130;2022-09-09T02:59:56;3.67;;;1.40;;
48727;SDS011;34527;45.618;5.130;2022-09-09T03:02:25;4.90;;;1.52;;
48727;SDS011;34527;45.618;5.130;2022-09-09T03:04:51;2.38;;;1.63;;
48727;SDS011;34527;45.618;5.130;2022-09-09T03:07:18;2.08;;;1.40;;
48727;SDS011;34527;45.618;5.130;2022-09-09T03:09:44;3.55;;;1.40;;
48727;SDS011;34527;45.618;5.130;2022-09-09T03:12:10;5.20;;;1.60;;
48727;SDS011;34527;45.618;5.130;2022-09-09T03:14:37;2.17;;;1.27;;
48727;SDS011;34527;45.618;5.130;2022-09-09T03:17:03;3.53;;;1.35;;
48727;SDS011;34527;45.618;5.130;2022-09-09T03:19:30;2.85;;;1.73;;
48727;SDS011;34527;45.618;5.130;2022-09-09T03:21:57;7.40;;;1.50;;
48727;SDS011;34527;45.618;5.130;2022-09-09T03:24:24;1.52;;;1.42;;
48727;SDS011;34527;45.618;5.130;2022-09-09T03:26:50;7.43;;;1.70;;
48727;SDS011;34527;45.618;5.130;2022-09-09T03:29:16;2.85;;;1.83;;
48727;SDS011;34527;45.618;5.130;2022-09-09T03:31:43;5.68;;;1.67;;
48727;SDS011;34527;45.618;5.130;2022-09-09T03:34:10;2.38;;;1.58;;
48727;SDS011;34527;45.618;5.130;2022-09-09T03:36:36;4.10;;;1.50;;
48727;SDS011;34527;45.618;5.130;2022-09-09T03:39:02;2.60;;;1.73;;
48727;SDS011;34527;45.618;5.130;2022-09-09T03:41:28;1.92;;;1.30;;
48727;SDS011;34527;45.618;5.130;2022-09-09T03:43:55;5.47;;;1.63;;
48727;SDS011;34527;45.618;5.130;2022-09-09T03:46:22;2.63;;;1.45;;
48727;SDS011;34527;45.618;5.130;2022-09-09T03:48:50;2.65;;;1.83;;
48727;SDS011;34527;45.618;5.130;2022-09-09T03:51:17;6.38;;;1.58;;
48727;SDS011;34527;45.618;5.130;2022-09-09T03:53:43;2.22;;;1.33;;
48727;SDS011;34527;45.618;5.130;2022-09-09T03:56:09;2.78;;;1.63;;
48727;SDS011;34527;45.618;5.130;2022-09-09T03:58:36;4.82;;;1.65;;
48727;SDS011;34527;45.618;5.130;2022-09-09T04:01:04;3.75;;;1.67;;
48727;SDS011;34527;45.618;5.130;2022-09-09T04:03:33;6.65;;;1.85;;
48727;SDS011;34527;45.618;5.130;2022-09-09T04:06:00;3.00;;;1.50;;
48727;SDS011;34527;45.618;5.130;2022-09-09T04:08:28;4.90;;;1.48;;
48727;SDS011;34527;45.618;5.130;2022-09-09T04:10:56;5.45;;;1.58;;
48727;SDS011;34527;45.618;5.130;2022-09-09T04:13:23;6.18;;;1.60;;
48727;SDS011;34527;45.618;5.130;2022-09-09T04:15:50;5.95;;;1.55;;
48727;SDS011;34527;45.618;5.130;2022-09-09T04:18:17;4.03;;;1.70;;
48727;SDS011;34527;45.618;5.130;2022-09-09T04:20:46;3.70;;;1.80;;
48727;SDS011;34527;45.618;5.130;2022-09-09T04:23:12;4.88;;;1.30;;
48727;SDS011;34527;45.618;5.130;2022-09-09T04:25:43;3.95;;;1.60;;
48727;SDS011;34527;45.618;5.130;2022-09-09T04:28:17;3.00;;;1.70;;
48727;SDS011;34527;45.618;5.130;2022-09-09T04:30:44;5.88;;;1.55;;
48727;SDS011;34527;45.618;5.130;2022-09-09T04:33:11;7.07;;;1.67;;
48727;SDS011;34527;45.618;5.130;2022-09-09T04:35:38;4.55;;;1.80;;
48727;SDS011;34527;45.618;5.130;2022-09-09T04:38:08;4.07;;;1.38;;
48727;SDS011;34527;45.618;5.130;2022-09-09T04:40:34;5.05;;;1.67;;
48727;SDS011;34527;45.618;5.130;2022-09-09T04:43:01;6.65;;;2.00;;
48727;SDS011;34527;45.618;5.130;2022-09-09T04:45:30;4.38;;;1.40;;
48727;SDS011;34527;45.618;5.130;2022-09-09T04:47:57;4.80;;;1.60;;
48727;SDS011;34527;45.618;5.130;2022-09-09T04:50:23;3.08;;;1.63;;
48727;SDS011;34527;45.618;5.130;2022-09-09T04:52:50;4.28;;;1.58;;
48727;SDS011;34527;45.618;5.130;2022-09-09T04:55:15;2.72;;;1.55;;
48727;SDS011;34527;45.618;5.130;2022-09-09T04:57:41;3.20;;;1.40;;
48727;SDS011;34527;45.618;5.130;2022-09-09T05:00:08;3.55;;;1.50;;
48727;SDS011;34527;45.618;5.130;2022-09-09T05:02:38;3.08;;;1.50;;
48727;SDS011;34527;45.618;5.130;2022-09-09T05:05:05;2.42;;;1.40;;
48727;SDS011;34527;45.618;5.130;2022-09-09T05:07:31;5.50;;;1.65;;
48727;SDS011;34527;45.618;5.130;2022-09-09T05:09:57;4.32;;;1.77;;
48727;SDS011;34527;45.618;5.130;2022-09-09T05:12:23;5.13;;;1.75;;
48727;SDS011;34527;45.618;5.130;2022-09-09T05:14:51;2.58;;;1.40;;
48727;SDS011;34527;45.618;5.130;2022-09-09T05:17:17;3.75;;;1.30;;
48727;SDS011;34527;45.618;5.130;2022-09-09T05:19:43;4.05;;;1.50;;
48727;SDS011;34527;45.618;5.130;2022-09-09T05:22:09;3.40;;;1.58;;
48727;SDS011;34527;45.618;5.130;2022-09-09T05:24:37;2.85;;;1.30;;
48727;SDS011;34527;45.618;5.130;2022-09-09T05:27:03;8.15;;;1.55;;
48727;SDS011;34527;45.618;5.130;2022-09-09T05:29:31;4.70;;;1.70;;
48727;SDS011;34527;45.618;5.130;2022-09-09T05:32:01;4.00;;;1.40;;
48727;SDS011;34527;45.618;5.130;2022-09-09T05:34:27;3.55;;;1.50;;
48727;SDS011;34527;45.618;5.130;2022-09-09T05:36:52;2.47;;;1.40;;
48727;SDS011;34527;45.618;5.130;2022-09-09T05:39:18;3.20;;;1.67;;
48727;SDS011;34527;45.618;5.130;2022-09-09T05:41:44;2.20;;;1.40;;
48727;SDS011;34527;45.618;5.130;2022-09-09T05:44:10;4.88;;;1.65;;
48727;SDS011;34527;45.618;5.130;2022-09-09T05:46:36;5.40;;;2.22;;
48727;SDS011;34527;45.618;5.130;2022-09-09T05:49:03;5.78;;;1.95;;
48727;SDS011;34527;45.618;5.130;2022-09-09T05:51:30;3.78;;;1.60;;
48727;SDS011;34527;45.618;5.130;2022-09-09T05:53:56;3.65;;;1.50;;
48727;SDS011;34527;45.618;5.130;2022-09-09T05:56:26;5.28;;;1.73;;
48727;SDS011;34527;45.618;5.130;2022-09-09T05:58:54;4.20;;;2.03;;
48727;SDS011;34527;45.618;5.130;2022-09-09T06:01:21;5.55;;;2.15;;
48727;SDS011;34527;45.618;5.130;2022-09-09T06:03:52;3.83;;;1.45;;
48727;SDS011;34527;45.618;5.130;2022-09-09T06:06:22;3.55;;;1.50;;
48727;SDS011;34527;45.618;5.130;2022-09-09T06:08:51;2.00;;;1.70;;
48727;SDS011;34527;45.618;5.130;2022-09-09T06:11:22;2.38;;;1.55;;
48727;SDS011;34527;45.618;5.130;2022-09-09T06:13:50;3.78;;;2.00;;
48727;SDS011;34527;45.618;5.130;2022-09-09T06:16:23;9.50;;;1.80;;
48727;SDS011;34527;45.618;5.130;2022-09-09T06:18:54;3.35;;;1.77;;
48727;SDS011;34527;45.618;5.130;2022-09-09T06:21:28;9.63;;;1.75;;
48727;SDS011;34527;45.618;5.130;2022-09-09T06:23:55;3.55;;;1.58;;
48727;SDS011;34527;45.618;5.130;2022-09-09T06:26:22;6.25;;;1.80;;
48727;SDS011;34527;45.618;5.130;2022-09-09T06:28:51;2.85;;;1.50;;
48727;SDS011;34527;45.618;5.130;2022-09-09T06:31:22;8.63;;;2.10;;
48727;SDS011;34527;45.618;5.130;2022-09-09T06:33:50;2.17;;;1.30;;
48727;SDS011;34527;45.618;5.130;2022-09-09T06:36:18;5.55;;;1.80;;
48727;SDS011;34527;45.618;5.130;2022-09-09T06:38:45;4.82;;;1.77;;
48727;SDS011;34527;45.618;5.130;2022-09-09T06:41:12;4.10;;;1.67;;
48727;SDS011;34527;45.618;5.130;2022-09-09T06:43:40;7.80;;;1.50;;
48727;SDS011;34527;45.618;5.130;2022-09-09T06:46:16;1.85;;;1.30;;
48727;SDS011;34527;45.618;5.130;2022-09-09T06:48:42;1.90;;;1.48;;
48727;SDS011;34527;45.618;5.130;2022-09-09T06:51:11;6.88;;;1.70;;
48727;SDS011;34527;45.618;5.130;2022-09-09T06:53:39;5.88;;;1.30;;
48727;SDS011;34527;45.618;5.130;2022-09-09T06:58:44;5.30;;;1.35;;
48727;SDS011;34527;45.618;5.130;2022-09-09T07:01:12;5.22;;;1.80;;
48727;SDS011;34527;45.618;5.130;2022-09-09T07:03:40;3.83;;;1.65;;
48727;SDS011;34527;45.618;5.130;2022-09-09T07:06:09;1.83;;;1.27;;
48727;SDS011;34527;45.618;5.130;2022-09-09T07:08:42;3.90;;;1.42;;
48727;SDS011;34527;45.618;5.130;2022-09-09T07:11:12;3.20;;;1.58;;
48727;SDS011;34527;45.618;5.130;2022-09-09T07:13:40;3.08;;;1.48;;
48727;SDS011;34527;45.618;5.130;2022-09-09T07:16:10;3.13;;;1.20;;
48727;SDS011;34527;45.618;5.130;2022-09-09T07:18:40;7.53;;;1.52;;
48727;SDS011;34527;45.618;5.130;2022-09-09T07:21:07;5.90;;;1.42;;
48727;SDS011;34527;45.618;5.130;2022-09-09T07:23:41;4.30;;;1.33;;
48727;SDS011;34527;45.618;5.130;2022-09-09T07:26:09;3.28;;;1.60;;
48727;SDS011;34527;45.618;5.130;2022-09-09T07:28:44;5.10;;;1.27;;
48727;SDS011;34527;45.618;5.130;2022-09-09T07:31:15;2.60;;;1.20;;
48727;SDS011;34527;45.618;5.130;2022-09-09T07:33:44;2.45;;;1.40;;
48727;SDS011;34527;45.618;5.130;2022-09-09T07:36:14;2.40;;;1.33;;
48727;SDS011;34527;45.618;5.130;2022-09-09T07:38:51;3.72;;;1.35;;
48727;SDS011;34527;45.618;5.130;2022-09-09T07:41:24;3.95;;;1.20;;
48727;SDS011;34527;45.618;5.130;2022-09-09T07:43:59;6.90;;;1.48;;
48727;SDS011;34527;45.618;5.130;2022-09-09T07:46:29;3.65;;;1.35;;
48727;SDS011;34527;45.618;5.130;2022-09-09T07:48:56;3.80;;;1.52;;
48727;SDS011;34527;45.618;5.130;2022-09-09T07:51:30;2.00;;;1.13;;
48727;SDS011;34527;45.618;5.130;2022-09-09T07:53:58;1.90;;;1.08;;
48727;SDS011;34527;45.618;5.130;2022-09-09T07:56:27;2.90;;;1.40;;
48727;SDS011;34527;45.618;5.130;2022-09-09T07:58:55;4.60;;;1.20;;
48727;SDS011;34527;45.618;5.130;2022-09-09T08:01:24;2.70;;;1.13;;
48727;SDS011;34527;45.618;5.130;2022-09-09T08:03:53;3.17;;;1.05;;
48727;SDS011;34527;45.618;5.130;2022-09-09T08:06:24;3.13;;;1.20;;
48727;SDS011;34527;45.618;5.130;2022-09-09T08:08:52;3.40;;;1.20;;
48727;SDS011;34527;45.618;5.130;2022-09-09T08:11:20;3.15;;;1.00;;
48727;SDS011;34527;45.618;5.130;2022-09-09T08:13:49;3.25;;;1.15;;
48727;SDS011;34527;45.618;5.130;2022-09-09T08:16:22;7.03;;;1.30;;
48727;SDS011;34527;45.618;5.130;2022-09-09T08:18:50;3.90;;;0.95;;
48727;SDS011;34527;45.618;5.130;2022-09-09T08:21:17;2.08;;;1.08;;
48727;SDS011;34527;45.618;5.130;2022-09-09T08:23:46;4.28;;;1.58;;
48727;SDS011;34527;45.618;5.130;2022-09-09T08:26:16;5.43;;;1.20;;
48727;SDS011;34527;45.618;5.130;2022-09-09T08:28:49;4.60;;;1.13;;
48727;SDS011;34527;45.618;5.130;2022-09-09T08:31:21;2.53;;;0.95;;
48727;SDS011;34527;45.618;5.130;2022-09-09T08:33:48;4.72;;;1.15;;
48727;SDS011;34527;45.618;5.130;2022-09-09T08:36:16;4.07;;;1.48;;
48727;SDS011;34527;45.618;5.130;2022-09-09T08:38:47;2.25;;;1.20;;
48727;SDS011;34527;45.618;5.130;2022-09-09T08:44:04;3.13;;;1.00;;
48727;SDS011;34527;45.618;5.130;2022-09-09T08:52:03;1.20;;;0.80;;
48727;SDS011;34527;45.618;5.130;2022-09-09T08:54:38;8.88;;;1.70;;
48727;SDS011;34527;45.618;5.130;2022-09-09T08:57:05;3.42;;;1.00;;
48727;SDS011;34527;45.618;5.130;2022-09-09T08:59:39;5.53;;;1.33;;
48727;SDS011;34527;45.618;5.130;2022-09-09T09:10:56;3.35;;;0.90;;
48727;SDS011;34527;45.618;5.130;2022-09-09T09:16:02;3.38;;;0.90;;
48727;SDS011;34527;45.618;5.130;2022-09-09T09:18:53;5.47;;;1.20;;
48727;SDS011;34527;45.618;5.130;2022-09-09T09:27:15;2.92;;;1.00;;
48727;SDS011;34527;45.618;5.130;2022-09-09T09:29:46;1.98;;;0.75;;
48727;SDS011;34527;45.618;5.130;2022-09-09T09:32:16;3.30;;;1.20;;
48727;SDS011;34527;45.618;5.130;2022-09-09T09:34:49;4.07;;;0.68;;
48727;SDS011;34527;45.618;5.130;2022-09-09T09:39:52;3.45;;;0.80;;
48727;SDS011;34527;45.618;5.130;2022-09-09T09:42:18;1.65;;;0.80;;
48727;SDS011;34527;45.618;5.130;2022-09-09T09:44:45;5.80;;;1.20;;
48727;SDS011;34527;45.618;5.130;2022-09-09T09:47:17;2.63;;;1.20;;
48727;SDS011;34527;45.618;5.130;2022-09-09T09:49:54;2.92;;;0.88;;
48727;SDS011;34527;45.618;5.130;2022-09-09T09:52:22;2.45;;;0.90;;
48727;SDS011;34527;45.618;5.130;2022-09-09T09:54:49;2.63;;;0.80;;
48727;SDS011;34527;45.618;5.130;2022-09-09T09:57:17;2.28;;;0.98;;
48727;SDS011;34527;45.618;5.130;2022-09-09T09:59:48;3.65;;;1.00;;
48727;SDS011;34527;45.618;5.130;2022-09-09T10:02:25;4.15;;;0.95;;
48727;SDS011;34527;45.618;5.130;2022-09-09T10:05:02;2.05;;;0.80;;
48727;SDS011;34527;45.618;5.130;2022-09-09T10:07:29;5.35;;;0.82;;
48727;SDS011;34527;45.618;5.130;2022-09-09T10:09:56;6.90;;;1.23;;
48727;SDS011;34527;45.618;5.130;2022-09-09T10:15:17;3.45;;;0.80;;
48727;SDS011;34527;45.618;5.130;2022-09-09T10:27:19;3.45;;;0.80;;
48727;SDS011;34527;45.618;5.130;2022-09-09T10:29:59;2.20;;;0.63;;
48727;SDS011;34527;45.618;5.130;2022-09-09T10:32:45;2.80;;;0.60;;
48727;SDS011;34527;45.618;5.130;2022-09-09T10:48:58;2.83;;;0.60;;
48727;SDS011;34527;45.618;5.130;2022-09-09T10:59:51;2.55;;;0.70;;
48727;SDS011;34527;45.618;5.130;2022-09-09T11:07:42;2.58;;;0.60;;
48727;SDS011;34527;45.618;5.130;2022-09-09T11:12:50;2.05;;;0.70;;
48727;SDS011;34527;45.618;5.130;2022-09-09T11:15:57;2.83;;;0.73;;
48727;SDS011;34527;45.618;5.130;2022-09-09T11:18:21;2.58;;;0.82;;
48727;SDS011;34527;45.618;5.130;2022-09-09T11:20:49;1.85;;;0.70;;
48727;SDS011;34527;45.618;5.130;2022-09-09T11:23:22;4.10;;;0.82;;
48727;SDS011;34527;45.618;5.130;2022-09-09T11:25:56;4.63;;;0.80;;
48727;SDS011;34527;45.618;5.130;2022-09-09T11:34:19;3.42;;;0.70;;
48727;SDS011;34527;45.618;5.130;2022-09-09T11:37:10;2.40;;;0.90;;
48727;SDS011;34527;45.618;5.130;2022-09-09T11:42:44;1.63;;;0.73;;
48727;SDS011;34527;45.618;5.130;2022-09-09T11:47:53;2.50;;;0.90;;
48727;SDS011;34527;45.618;5.130;2022-09-09T11:52:49;2.25;;;0.80;;
48727;SDS011;34527;45.618;5.130;2022-09-09T11:55:25;2.63;;;0.80;;
48727;SDS011;34527;45.618;5.130;2022-09-09T11:58:01;2.22;;;0.70;;
48727;SDS011;34527;45.618;5.130;2022-09-09T12:00:37;1.30;;;0.70;;
48727;SDS011;34527;45.618;5.130;2022-09-09T12:06:00;3.95;;;1.20;;
48727;SDS011;34527;45.618;5.130;2022-09-09T12:08:36;1.30;;;0.80;;
48727;SDS011;34527;45.618;5.130;2022-09-09T12:11:08;1.80;;;0.85;;
48727;SDS011;34527;45.618;5.130;2022-09-09T12:13:34;1.55;;;0.77;;
48727;SDS011;34527;45.618;5.130;2022-09-09T12:16:01;3.78;;;0.65;;
48727;SDS011;34527;45.618;5.130;2022-09-09T12:23:52;1.77;;;0.60;;
48727;SDS011;34527;45.618;5.130;2022-09-09T12:26:28;2.33;;;1.00;;
48727;SDS011;34527;45.618;5.130;2022-09-09T12:29:11;1.65;;;0.80;;
48727;SDS011;34527;45.618;5.130;2022-09-09T12:34:44;1.48;;;0.60;;
48727;SDS011;34527;45.618;5.130;2022-09-09T12:37:18;2.20;;;0.65;;
48727;SDS011;34527;45.618;5.130;2022-09-09T12:42:52;1.27;;;0.70;;
48727;SDS011;34527;45.618;5.130;2022-09-09T12:50:23;1.67;;;0.80;;
48727;SDS011;34527;45.618;5.130;2022-09-09T12:52:51;3.67;;;0.85;;
48727;SDS011;34527;45.618;5.130;2022-09-09T12:55:34;2.17;;;0.55;;
48727;SDS011;34527;45.618;5.130;2022-09-09T12:58:03;0.70;;;0.55;;
48727;SDS011;34527;45.618;5.130;2022-09-09T13:00:31;1.75;;;0.60;;
48727;SDS011;34527;45.618;5.130;2022-09-09T13:03:14;2.50;;;0.70;;
48727;SDS011;34527;45.618;5.130;2022-09-09T13:05:43;2.67;;;0.65;;
48727;SDS011;34527;45.618;5.130;2022-09-09T13:08:10;3.55;;;0.90;;
48727;SDS011;34527;45.618;5.130;2022-09-09T13:10:38;1.95;;;0.55;;
48727;SDS011;34527;45.618;5.130;2022-09-09T13:13:13;1.38;;;0.50;;
48727;SDS011;34527;45.618;5.130;2022-09-09T13:15:47;1.73;;;0.70;;
48727;SDS011;34527;45.618;5.130;2022-09-09T13:18:20;1.85;;;0.60;;
48727;SDS011;34527;45.618;5.130;2022-09-09T13:20:49;4.32;;;0.75;;
48727;SDS011;34527;45.618;5.130;2022-09-09T13:23:17;2.28;;;0.70;;
48727;SDS011;34527;45.618;5.130;2022-09-09T13:25:58;1.42;;;0.50;;
48727;SDS011;34527;45.618;5.130;2022-09-09T13:28:26;2.63;;;0.77;;
48727;SDS011;34527;45.618;5.130;2022-09-09T13:30:58;1.27;;;0.50;;
48727;SDS011;34527;45.618;5.130;2022-09-09T13:33:35;3.40;;;0.60;;
48727;SDS011;34527;45.618;5.130;2022-09-09T13:36:03;1.08;;;0.50;;
48727;SDS011;34527;45.618;5.130;2022-09-09T13:38:53;2.83;;;0.70;;
48727;SDS011;34527;45.618;5.130;2022-09-09T13:41:21;2.65;;;0.75;;
48727;SDS011;34527;45.618;5.130;2022-09-09T13:43:49;1.50;;;0.70;;
48727;SDS011;34527;45.618;5.130;2022-09-09T13:46:24;1.25;;;0.57;;
48727;SDS011;34527;45.618;5.130;2022-09-09T13:48:56;2.70;;;0.60;;
48727;SDS011;34527;45.618;5.130;2022-09-09T13:53:59;2.10;;;0.85;;
48727;SDS011;34527;45.618;5.130;2022-09-09T13:56:25;1.77;;;0.60;;
48727;SDS011;34527;45.618;5.130;2022-09-09T13:58:51;1.98;;;0.60;;
48727;SDS011;34527;45.618;5.130;2022-09-09T14:01:17;2.63;;;0.73;;
48727;SDS011;34527;45.618;5.130;2022-09-09T14:03:43;2.25;;;0.50;;
48727;SDS011;34527;45.618;5.130;2022-09-09T14:06:10;2.53;;;0.70;;
48727;SDS011;34527;45.618;5.130;2022-09-09T14:08:36;2.70;;;0.75;;
48727;SDS011;34527;45.618;5.130;2022-09-09T14:11:03;2.67;;;0.93;;
48727;SDS011;34527;45.618;5.130;2022-09-09T14:13:29;2.15;;;0.70;;
48727;SDS011;34527;45.618;5.130;2022-09-09T14:15:55;1.85;;;0.73;;
48727;SDS011;34527;45.618;5.130;2022-09-09T14:18:21;2.92;;;0.77;;
48727;SDS011;34527;45.618;5.130;2022-09-09T14:20:48;1.67;;;0.60;;
48727;SDS011;34527;45.618;5.130;2022-09-09T14:23:15;2.88;;;0.70;;
48727;SDS011;34527;45.618;5.130;2022-09-09T14:25:42;2.42;;;0.65;;
48727;SDS011;34527;45.618;5.130;2022-09-09T14:28:09;3.15;;;0.77;;
48727;SDS011;34527;45.618;5.130;2022-09-09T14:30:37;1.10;;;0.63;;
48727;SDS011;34527;45.618;5.130;2022-09-09T14:33:05;2.70;;;0.70;;
48727;SDS011;34527;45.618;5.130;2022-09-09T14:35:31;2.47;;;0.65;;
48727;SDS011;34527;45.618;5.130;2022-09-09T14:37:58;1.58;;;0.50;;
48727;SDS011;34527;45.618;5.130;2022-09-09T14:40:25;2.42;;;1.17;;
48727;SDS011;34527;45.618;5.130;2022-09-09T14:42:52;2.55;;;0.70;;
48727;SDS011;34527;45.618;5.130;2022-09-09T14:45:18;2.95;;;0.80;;
48727;SDS011;34527;45.618;5.130;2022-09-09T14:47:46;2.20;;;0.60;;
48727;SDS011;34527;45.618;5.130;2022-09-09T14:50:12;2.85;;;1.10;;
48727;SDS011;34527;45.618;5.130;2022-09-09T14:52:39;7.28;;;0.88;;
48727;SDS011;34527;45.618;5.130;2022-09-09T14:55:05;3.97;;;1.23;;
48727;SDS011;34527;45.618;5.130;2022-09-09T14:57:32;3.45;;;1.05;;
48727;SDS011;34527;45.618;5.130;2022-09-09T14:59:59;2.83;;;0.60;;
48727;SDS011;34527;45.618;5.130;2022-09-09T15:02:25;2.67;;;0.68;;
48727;SDS011;34527;45.618;5.130;2022-09-09T15:04:52;4.32;;;1.00;;
48727;SDS011;34527;45.618;5.130;2022-09-09T15:07:18;1.75;;;0.80;;
48727;SDS011;34527;45.618;5.130;2022-09-09T15:09:44;7.45;;;1.02;;
48727;SDS011;34527;45.618;5.130;2022-09-09T15:12:12;4.00;;;0.90;;
48727;SDS011;34527;45.618;5.130;2022-09-09T15:14:39;4.47;;;0.90;;
48727;SDS011;34527;45.618;5.130;2022-09-09T15:17:04;1.63;;;0.75;;
48727;SDS011;34527;45.618;5.130;2022-09-09T15:19:30;1.98;;;0.75;;
48727;SDS011;34527;45.618;5.130;2022-09-09T15:21:57;4.28;;;1.00;;
48727;SDS011;34527;45.618;5.130;2022-09-09T15:24:25;4.90;;;0.80;;
48727;SDS011;34527;45.618;5.130;2022-09-09T15:26:51;1.95;;;0.75;;
48727;SDS011;34527;45.618;5.130;2022-09-09T15:29:18;3.15;;;0.63;;
48727;SDS011;34527;45.618;5.130;2022-09-09T15:31:44;1.95;;;0.70;;
48727;SDS011;34527;45.618;5.130;2022-09-09T15:34:11;2.05;;;0.80;;
48727;SDS011;34527;45.618;5.130;2022-09-09T15:36:39;2.42;;;0.82;;
48727;SDS011;34527;45.618;5.130;2022-09-09T15:39:07;1.65;;;0.70;;
48727;SDS011;34527;45.618;5.130;2022-09-09T15:41:38;4.35;;;0.70;;
48727;SDS011;34527;45.618;5.130;2022-09-09T15:44:04;1.67;;;0.65;;
48727;SDS011;34527;45.618;5.130;2022-09-09T15:46:37;1.63;;;0.90;;
48727;SDS011;34527;45.618;5.130;2022-09-09T15:49:12;2.20;;;1.00;;
48727;SDS011;34527;45.618;5.130;2022-09-09T15:51:43;2.53;;;0.70;;
48727;SDS011;34527;45.618;5.130;2022-09-09T15:54:12;5.18;;;0.82;;
48727;SDS011;34527;45.618;5.130;2022-09-09T15:56:43;1.45;;;0.60;;
48727;SDS011;34527;45.618;5.130;2022-09-09T15:59:10;2.80;;;0.80;;
48727;SDS011;34527;45.618;5.130;2022-09-09T16:01:36;3.00;;;0.82;;
48727;SDS011;34527;45.618;5.130;2022-09-09T16:04:04;3.17;;;1.00;;
48727;SDS011;34527;45.618;5.130;2022-09-09T16:06:31;1.77;;;0.70;;
48727;SDS011;34527;45.618;5.130;2022-09-09T16:08:58;2.40;;;0.77;;
48727;SDS011;34527;45.618;5.130;2022-09-09T16:11:29;1.65;;;0.63;;
48727;SDS011;34527;45.618;5.130;2022-09-09T16:13:58;2.38;;;0.85;;
48727;SDS011;34527;45.618;5.130;2022-09-09T16:16:25;2.40;;;0.75;;
48727;SDS011;34527;45.618;5.130;2022-09-09T16:18:54;2.50;;;0.82;;
48727;SDS011;34527;45.618;5.130;2022-09-09T16:23:54;2.10;;;0.70;;
48727;SDS011;34527;45.618;5.130;2022-09-09T16:26:21;2.60;;;0.70;;
48727;SDS011;34527;45.618;5.130;2022-09-09T16:28:48;2.63;;;0.82;;
48727;SDS011;34527;45.618;5.130;2022-09-09T16:31:18;1.92;;;0.60;;
48727;SDS011;34527;45.618;5.130;2022-09-09T16:33:45;3.33;;;0.77;;
48727;SDS011;34527;45.618;5.130;2022-09-09T16:36:15;2.38;;;0.80;;
48727;SDS011;34527;45.618;5.130;2022-09-09T16:38:43;2.47;;;0.90;;
48727;SDS011;34527;45.618;5.130;2022-09-09T16:41:10;2.25;;;0.60;;
48727;SDS011;34527;45.618;5.130;2022-09-09T16:43:37;1.92;;;0.50;;
48727;SDS011;34527;45.618;5.130;2022-09-09T16:46:15;3.92;;;0.80;;
48727;SDS011;34527;45.618;5.130;2022-09-09T16:48:43;1.15;;;0.65;;
48727;SDS011;34527;45.618;5.130;2022-09-09T16:51:14;1.55;;;0.70;;
48727;SDS011;34527;45.618;5.130;2022-09-09T16:53:40;2.05;;;0.70;;
48727;SDS011;34527;45.618;5.130;2022-09-09T16:56:11;2.25;;;0.88;;
48727;SDS011;34527;45.618;5.130;2022-09-09T16:58:39;3.17;;;1.00;;
48727;SDS011;34527;45.618;5.130;2022-09-09T17:01:06;2.90;;;1.70;;
48727;SDS011;34527;45.618;5.130;2022-09-09T17:03:32;4.05;;;1.23;;
48727;SDS011;34527;45.618;5.130;2022-09-09T17:05:58;3.17;;;1.00;;
48727;SDS011;34527;45.618;5.130;2022-09-09T17:08:30;2.45;;;0.77;;
48727;SDS011;34527;45.618;5.130;2022-09-09T17:10:56;4.18;;;0.93;;
48727;SDS011;34527;45.618;5.130;2022-09-09T17:13:23;2.30;;;0.80;;
48727;SDS011;34527;45.618;5.130;2022-09-09T17:15:50;2.63;;;0.85;;
48727;SDS011;34527;45.618;5.130;2022-09-09T17:18:16;0.82;;;0.50;;
48727;SDS011;34527;45.618;5.130;2022-09-09T17:20:42;4.72;;;0.95;;
48727;SDS011;34527;45.618;5.130;2022-09-09T17:23:12;2.55;;;1.08;;
48727;SDS011;34527;45.618;5.130;2022-09-09T17:25:40;4.45;;;1.48;;
48727;SDS011;34527;45.618;5.130;2022-09-09T17:28:07;3.45;;;1.50;;
48727;SDS011;34527;45.618;5.130;2022-09-09T17:30:36;4.22;;;1.30;;
48727;SDS011;34527;45.618;5.130;2022-09-09T17:33:02;2.92;;;1.20;;
48727;SDS011;34527;45.618;5.130;2022-09-09T17:35:30;3.20;;;1.00;;
48727;SDS011;34527;45.618;5.130;2022-09-09T17:37:56;5.07;;;0.93;;
48727;SDS011;34527;45.618;5.130;2022-09-09T17:40:22;3.08;;;0.70;;
48727;SDS011;34527;45.618;5.130;2022-09-09T17:42:48;6.18;;;0.90;;
48727;SDS011;34527;45.618;5.130;2022-09-09T17:45:14;3.58;;;0.80;;